Time;durP1;ratioP1;P1;durP2;ratioP2;P2;SDS_P1;SDS_P2;PMS_P1;PMS_P2;Temp;Humidity;BMP_temperature;BMP_pressure;BME280_temperature;BME280_humidity;BME280_pressure;Samples;Min_cycle;Max_cycle;Signal;HPM_P1;HPM_P2
2021/09/10 00:01:55;;;;;;;13.05;9.63;;;;;;;21.31;70.91;101160.06;5067564;28;20416;-49
2021/09/10 00:04:20;;;;;;;16.23;10.82;;;;;;;21.44;70.24;101165.91;5066651;28;20105;-46
2021/09/10 00:06:45;;;;;;;18.48;10.45;;;;;;;21.46;70.10;101164.09;5065585;28;20085;-46
2021/09/10 00:09:11;;;;;;;16.50;10.38;;;;;;;21.57;69.92;101167.34;5069157;28;20056;-50
2021/09/10 00:11:36;;;;;;;15.38;10.30;;;;;;;21.63;69.88;101164.50;5066790;28;20115;-47
2021/09/10 00:14:02;;;;;;;16.20;10.38;;;;;;;21.68;69.45;101169.69;5064803;28;20441;-47
2021/09/10 00:16:27;;;;;;;17.00;10.40;;;;;;;21.69;69.38;101166.13;5063753;28;20588;-48
2021/09/10 00:18:53;;;;;;;17.23;10.75;;;;;;;21.69;69.55;101164.34;5061200;28;20032;-47
2021/09/10 00:21:18;;;;;;;19.45;10.43;;;;;;;21.73;69.57;101170.41;5049640;28;20471;-46
2021/09/10 00:23:44;;;;;;;17.77;11.52;;;;;;;21.77;69.44;101162.31;5063656;28;20031;-48
2021/09/10 00:26:09;;;;;;;17.65;12.57;;;;;;;21.77;69.59;101153.53;5069190;28;20896;-47
2021/09/10 00:28:34;;;;;;;19.23;12.00;;;;;;;21.80;69.18;101150.75;5063226;28;20082;-47
2021/09/10 00:31:00;;;;;;;18.67;12.13;;;;;;;21.83;69.32;101154.19;5064789;28;20537;-47
2021/09/10 00:33:26;;;;;;;19.58;13.07;;;;;;;21.88;69.17;101153.22;5070966;28;20044;-46
2021/09/10 00:35:51;;;;;;;21.40;14.25;;;;;;;21.88;69.16;101143.47;5065836;28;20043;-50
2021/09/10 00:38:17;;;;;;;22.95;14.68;;;;;;;21.87;69.64;101144.38;5067195;28;20036;-49
2021/09/10 00:40:44;;;;;;;21.50;14.52;;;;;;;21.86;69.39;101142.63;5068040;28;20088;-47
2021/09/10 00:43:10;;;;;;;23.45;14.15;;;;;;;21.88;69.37;101142.59;5063544;28;20063;-47
2021/09/10 00:45:35;;;;;;;23.35;13.93;;;;;;;21.80;69.58;101137.50;5065516;28;20111;-49
2021/09/10 00:48:01;;;;;;;20.83;13.88;;;;;;;21.72;69.73;101147.44;5064830;28;20028;-46
2021/09/10 00:50:26;;;;;;;16.83;11.95;;;;;;;21.64;69.85;101139.72;5051972;28;20169;-50
2021/09/10 00:52:52;;;;;;;20.27;13.10;;;;;;;21.57;69.81;101146.09;5065320;28;20044;-46
2021/09/10 00:55:25;;;;;;;19.73;12.27;;;;;;;21.53;70.17;101136.47;5068144;28;20035;-48
2021/09/10 00:57:51;;;;;;;26.05;16.27;;;;;;;21.51;70.77;101145.41;5066047;28;20040;-49
2021/09/10 01:00:16;;;;;;;19.52;12.70;;;;;;;21.54;71.02;101146.19;5066317;28;20055;-46
2021/09/10 01:02:42;;;;;;;21.67;13.68;;;;;;;21.56;71.20;101144.38;5049068;28;20036;-49
2021/09/10 01:05:08;;;;;;;21.98;15.25;;;;;;;21.60;71.05;101146.00;5066713;28;20051;-46
2021/09/10 01:07:34;;;;;;;27.90;16.20;;;;;;;21.62;71.46;101148.63;5048419;28;20376;-47
2021/09/10 01:10:00;;;;;;;25.85;16.58;;;;;;;21.64;71.18;101137.06;5053529;28;20020;-50
2021/09/10 01:12:25;;;;;;;22.92;14.02;;;;;;;21.67;70.84;101134.31;5058400;28;20016;-47
2021/09/10 01:14:51;;;;;;;25.30;14.18;;;;;;;21.64;70.80;101136.19;5052776;28;20035;-48
2021/09/10 01:17:16;;;;;;;25.33;15.13;;;;;;;21.64;71.17;101131.75;5041993;28;20304;-48
2021/09/10 01:19:41;;;;;;;23.83;15.15;;;;;;;21.61;71.42;101137.13;5051015;28;20547;-46
2021/09/10 01:22:07;;;;;;;23.05;15.02;;;;;;;21.58;71.56;101131.94;5065863;28;20024;-45
2021/09/10 01:24:38;;;;;;;25.75;16.42;;;;;;;21.56;71.98;101136.41;5065279;28;20032;-46
2021/09/10 01:27:04;;;;;;;26.58;15.30;;;;;;;21.59;71.64;101130.16;5064355;28;20038;-51
2021/09/10 01:29:31;;;;;;;27.10;16.42;;;;;;;21.62;71.95;101130.06;5062673;28;20031;-47
2021/09/10 01:31:56;;;;;;;24.58;15.93;;;;;;;21.65;71.85;101133.47;5050345;28;20028;-46
2021/09/10 01:34:22;;;;;;;24.02;15.88;;;;;;;21.70;71.73;101128.06;5069733;28;20461;-47
2021/09/10 01:36:48;;;;;;;25.08;15.40;;;;;;;21.73;71.97;101134.16;5064868;28;20138;-48
2021/09/10 01:39:13;;;;;;;22.25;14.82;;;;;;;21.75;71.84;101140.28;5066145;28;20020;-48
2021/09/10 01:41:38;;;;;;;21.33;14.27;;;;;;;21.78;71.70;101134.00;5059936;28;20557;-51
2021/09/10 01:44:04;;;;;;;23.05;15.93;;;;;;;21.80;71.41;101124.22;5068086;28;20028;-46
2021/09/10 01:46:29;;;;;;;21.95;14.02;;;;;;;21.79;71.55;101123.34;5068558;28;20048;-48
2021/09/10 01:48:55;;;;;;;21.40;13.25;;;;;;;21.77;71.65;101125.16;5066666;28;20482;-48
2021/09/10 01:51:33;;;;;;;25.33;15.18;;;;;;;21.74;71.90;101127.94;5065415;28;20063;-48
2021/09/10 01:53:59;;;;;;;24.27;15.45;;;;;;;21.74;71.68;101121.75;5066373;28;20157;-47
2021/09/10 01:56:25;;;;;;;21.25;14.23;;;;;;;21.75;71.86;101127.03;5067523;28;20055;-52
2021/09/10 01:58:50;;;;;;;23.80;15.45;;;;;;;21.73;72.37;101123.53;5071144;28;20111;-46
2021/09/10 02:01:27;;;;;;;24.88;15.40;;;;;;;21.73;72.60;101130.63;5072069;28;20074;-47
2021/09/10 02:03:53;;;;;;;25.67;15.82;;;;;;;21.72;72.63;101124.44;5070385;28;20039;-50
2021/09/10 02:06:18;;;;;;;28.13;15.93;;;;;;;21.70;72.97;101134.25;5069709;28;20519;-46
2021/09/10 02:08:44;;;;;;;24.45;15.25;;;;;;;21.80;72.62;101124.22;5066746;28;20032;-51
2021/09/10 02:11:10;;;;;;;24.90;15.55;;;;;;;21.84;72.49;101124.09;5066707;28;20032;-51
2021/09/10 02:13:35;;;;;;;25.85;16.30;;;;;;;21.82;73.00;101120.63;5068707;28;20929;-51
2021/09/10 02:16:01;;;;;;;23.85;15.38;;;;;;;21.86;72.62;101130.22;5068458;28;20016;-49
2021/09/10 02:18:26;;;;;;;28.05;15.02;;;;;;;21.90;72.62;101132.78;5069079;28;20032;-48
2021/09/10 02:20:51;;;;;;;25.60;15.77;;;;;;;21.86;72.46;101121.38;5067907;28;20343;-51
2021/09/10 02:23:17;;;;;;;27.27;16.17;;;;;;;21.91;72.69;101127.44;5067524;28;20023;-50
2021/09/10 02:25:42;;;;;;;25.42;15.48;;;;;;;21.95;72.51;101137.09;5068429;28;20036;-50
2021/09/10 02:28:07;;;;;;;23.70;14.82;;;;;;;21.96;72.60;101137.94;5069761;28;20024;-48
2021/09/10 02:30:34;;;;;;;25.08;15.18;;;;;;;21.95;72.67;101142.41;5067998;28;20027;-51
2021/09/10 02:33:00;;;;;;;22.10;13.77;;;;;;;21.98;72.61;101141.44;5072833;28;20556;-49
2021/09/10 02:35:25;;;;;;;25.27;14.93;;;;;;;21.98;72.41;101134.34;5067590;28;20032;-47
2021/09/10 02:37:50;;;;;;;22.65;14.65;;;;;;;21.97;72.49;101139.69;5050717;28;20024;-48
2021/09/10 02:40:16;;;;;;;24.60;14.57;;;;;;;21.92;72.32;101136.25;5067743;28;20073;-48
2021/09/10 02:42:41;;;;;;;25.00;14.65;;;;;;;21.83;72.66;101135.59;5065859;28;20034;-46
2021/09/10 02:45:07;;;;;;;24.00;15.38;;;;;;;21.83;72.81;101134.78;5070680;28;20036;-48
2021/09/10 02:47:32;;;;;;;24.60;15.80;;;;;;;21.77;73.61;101141.09;5066871;28;20324;-51
2021/09/10 02:49:57;;;;;;;24.23;15.20;;;;;;;21.79;72.97;101133.97;5069362;28;20035;-48
2021/09/10 02:52:23;;;;;;;28.08;15.25;;;;;;;21.75;73.46;101131.44;5066925;28;20251;-48
2021/09/10 02:54:48;;;;;;;26.95;15.63;;;;;;;21.74;73.18;101125.28;5054363;28;20058;-48
2021/09/10 02:57:13;;;;;;;24.45;15.15;;;;;;;21.73;73.04;101131.50;5049359;28;20359;-50
2021/09/10 02:59:39;;;;;;;25.38;15.15;;;;;;;21.73;73.29;101134.16;5068862;28;20020;-48
2021/09/10 03:02:04;;;;;;;25.52;16.25;;;;;;;21.71;73.31;101129.81;5071047;28;20021;-46
2021/09/10 03:04:30;;;;;;;27.77;15.80;;;;;;;21.65;73.40;101130.81;5045671;28;20035;-48
2021/09/10 03:06:55;;;;;;;23.75;15.02;;;;;;;21.65;73.84;101138.78;5071438;28;20027;-50
2021/09/10 03:09:20;;;;;;;25.85;15.63;;;;;;;21.65;73.62;101138.78;5065406;28;20973;-48
2021/09/10 03:11:46;;;;;;;24.27;14.77;;;;;;;21.63;73.68;101137.09;5066733;28;20051;-47
2021/09/10 03:14:11;;;;;;;25.55;16.40;;;;;;;21.62;73.60;101138.88;5069272;28;20084;-50
2021/09/10 03:16:37;;;;;;;23.65;15.45;;;;;;;21.65;73.60;101145.91;5069138;28;20351;-48
2021/09/10 03:19:02;;;;;;;26.80;15.68;;;;;;;21.70;73.68;101144.00;5066998;28;20110;-49
2021/09/10 03:21:27;;;;;;;24.95;14.95;;;;;;;21.69;73.40;101136.94;5066284;28;20456;-48
2021/09/10 03:23:53;;;;;;;28.30;16.05;;;;;;;21.65;73.79;101138.78;5068951;28;20089;-47
2021/09/10 03:26:19;;;;;;;28.95;16.05;;;;;;;21.61;74.16;101138.91;5069219;28;20488;-53
2021/09/10 03:28:44;;;;;;;22.75;14.38;;;;;;;21.72;73.75;101143.00;5066598;28;20396;-48
2021/09/10 03:31:10;;;;;;;26.40;15.25;;;;;;;21.72;73.60;101145.66;5069711;28;20107;-48
2021/09/10 03:33:35;;;;;;;29.17;15.48;;;;;;;21.64;73.98;101139.72;5062260;28;20067;-48
2021/09/10 03:36:00;;;;;;;26.33;16.38;;;;;;;21.63;74.04;101153.91;5068824;28;20111;-46
2021/09/10 03:38:25;;;;;;;25.73;16.27;;;;;;;21.64;74.33;101144.16;5064565;28;20034;-47
2021/09/10 03:40:51;;;;;;;25.58;15.73;;;;;;;21.61;73.79;101145.09;5066130;28;20510;-47
2021/09/10 03:43:16;;;;;;;25.23;15.35;;;;;;;21.68;73.87;101145.81;5065047;28;20038;-47
2021/09/10 03:45:42;;;;;;;24.48;15.55;;;;;;;21.63;73.70;101134.44;5065364;28;20032;-51
2021/09/10 03:48:07;;;;;;;28.80;15.48;;;;;;;21.61;73.99;101138.91;5071178;28;20982;-48
2021/09/10 03:50:32;;;;;;;30.67;16.63;;;;;;;21.52;74.67;101145.38;5064141;28;20445;-49
2021/09/10 03:52:58;;;;;;;26.27;15.65;;;;;;;21.59;74.32;101138.97;5071110;28;20565;-47
2021/09/10 03:55:23;;;;;;;26.65;15.57;;;;;;;21.53;74.51;101146.25;5067133;28;20020;-48
2021/09/10 03:57:49;;;;;;;29.20;16.85;;;;;;;21.48;74.41;101148.13;5068168;28;20032;-47
2021/09/10 04:00:15;;;;;;;25.05;15.95;;;;;;;21.45;74.28;101143.78;5047352;28;20572;-47
2021/09/10 04:02:40;;;;;;;23.80;14.98;;;;;;;21.41;73.96;101145.63;5065964;28;22260;-49
2021/09/10 04:05:06;;;;;;;30.67;16.70;;;;;;;21.32;74.34;101145.03;5048042;28;20032;-51
2021/09/10 04:07:31;;;;;;;26.38;15.60;;;;;;;21.25;74.16;101141.66;5072052;28;20081;-47
2021/09/10 04:09:56;;;;;;;28.90;16.05;;;;;;;21.19;74.80;101140.94;5066384;28;20035;-48
2021/09/10 04:12:22;;;;;;;27.73;14.70;;;;;;;21.25;74.35;101146.09;5069463;28;20027;-48
2021/09/10 04:14:48;;;;;;;33.92;16.65;;;;;;;21.21;74.31;101147.97;5066043;28;20039;-52
2021/09/10 04:17:13;;;;;;;30.42;17.08;;;;;;;21.17;74.82;101145.41;5067375;28;20107;-46
2021/09/10 04:19:38;;;;;;;30.70;16.75;;;;;;;21.14;75.13;101149.00;5067157;28;20484;-50
2021/09/10 04:22:04;;;;;;;27.33;15.32;;;;;;;21.17;75.00;101150.72;5066526;28;20539;-47
2021/09/10 04:24:29;;;;;;;34.13;17.85;;;;;;;21.19;75.13;101149.78;5066604;28;20572;-49
2021/09/10 04:26:55;;;;;;;26.58;15.63;;;;;;;21.24;75.46;101145.22;5062801;28;20144;-46
2021/09/10 04:29:20;;;;;;;33.08;17.63;;;;;;;21.25;75.02;101146.97;5069956;28;20024;-50
2021/09/10 04:31:46;;;;;;;30.20;17.33;;;;;;;21.24;75.48;101147.88;5066864;28;20023;-48
2021/09/10 04:34:11;;;;;;;31.67;17.75;;;;;;;21.22;75.67;101141.75;5070985;28;20046;-46
2021/09/10 04:36:36;;;;;;;30.92;16.77;;;;;;;21.27;75.22;101142.50;5063638;28;20036;-46
2021/09/10 04:39:02;;;;;;;31.58;18.25;;;;;;;21.27;75.05;101139.84;5066479;28;20438;-50
2021/09/10 04:41:28;;;;;;;32.88;17.45;;;;;;;21.32;75.15;101137.94;5065405;28;20417;-47
2021/09/10 04:43:53;;;;;;;28.25;16.77;;;;;;;21.31;74.96;101136.19;5051049;28;20486;-47
2021/09/10 04:46:18;;;;;;;31.10;17.42;;;;;;;21.37;74.94;101132.50;5062923;28;20078;-46
2021/09/10 04:48:44;;;;;;;27.88;15.82;;;;;;;21.36;74.96;101128.09;5071300;28;20063;-48
2021/09/10 04:51:09;;;;;;;29.70;16.25;;;;;;;21.30;75.02;101137.09;5068080;28;20020;-55
2021/09/10 04:53:36;;;;;;;25.85;15.10;;;;;;;21.33;74.77;101134.38;5068073;28;20047;-50
2021/09/10 04:56:02;;;;;;;30.48;16.30;;;;;;;21.28;74.77;101130.13;5064985;28;20032;-49
2021/09/10 04:58:27;;;;;;;29.10;16.70;;;;;;;21.21;75.06;101131.19;5066200;28;20127;-50
2021/09/10 05:00:53;;;;;;;29.90;17.42;;;;;;;21.15;74.94;101132.22;5064787;28;20376;-48
2021/09/10 05:03:18;;;;;;;31.70;16.92;;;;;;;21.10;74.97;101131.44;5068352;28;20070;-48
2021/09/10 05:05:43;;;;;;;32.38;17.25;;;;;;;21.11;74.96;101137.59;5066360;28;20089;-48
2021/09/10 05:08:09;;;;;;;33.30;18.05;;;;;;;21.10;75.11;101139.38;5065602;28;20021;-50
2021/09/10 05:10:34;;;;;;;28.10;15.35;;;;;;;21.09;75.13;101137.66;5068926;28;20046;-45
2021/09/10 05:12:59;;;;;;;29.67;16.77;;;;;;;21.11;75.31;101132.28;5067978;28;20032;-46
2021/09/10 05:15:25;;;;;;;33.58;17.88;;;;;;;21.08;75.53;101133.25;5061816;28;20343;-47
2021/09/10 05:17:50;;;;;;;32.70;18.08;;;;;;;21.11;75.53;101138.47;5069465;28;20434;-47
2021/09/10 05:20:16;;;;;;;32.65;16.88;;;;;;;21.10;75.57;101138.53;5060694;28;20129;-50
2021/09/10 05:22:41;;;;;;;34.65;18.45;;;;;;;21.14;75.51;101141.03;5068224;28;20581;-49
2021/09/10 05:25:07;;;;;;;33.70;18.52;;;;;;;21.19;75.36;101141.81;5065402;28;20507;-48
2021/09/10 05:27:33;;;;;;;31.23;16.88;;;;;;;21.26;74.92;101147.84;5047883;28;20085;-47
2021/09/10 05:29:59;;;;;;;31.17;18.00;;;;;;;21.27;74.78;101150.47;5070997;28;20031;-50
2021/09/10 05:32:25;;;;;;;28.60;16.40;;;;;;;21.30;75.14;101149.50;5065669;28;20024;-45
2021/09/10 05:34:50;;;;;;;32.72;16.98;;;;;;;21.32;74.87;101151.19;5069134;28;20027;-49
2021/09/10 05:37:15;;;;;;;28.67;17.02;;;;;;;21.41;74.55;101163.34;5065968;28;20027;-46
2021/09/10 05:39:41;;;;;;;30.63;16.77;;;;;;;21.45;74.55;101163.22;5068362;28;20115;-52
2021/09/10 05:42:06;;;;;;;32.45;17.30;;;;;;;21.46;74.53;101166.75;5063913;28;20110;-46
2021/09/10 05:44:32;;;;;;;27.65;16.15;;;;;;;21.53;74.14;101176.25;5069028;28;20054;-47
2021/09/10 05:46:57;;;;;;;30.90;17.65;;;;;;;21.50;74.16;101178.16;5069637;28;20051;-49
2021/09/10 05:49:23;;;;;;;29.85;18.08;;;;;;;21.49;74.13;101179.94;5068508;28;20636;-47
2021/09/10 05:51:48;;;;;;;28.30;17.25;;;;;;;21.53;74.22;101180.72;5069342;28;20025;-48
2021/09/10 05:54:13;;;;;;;30.83;17.40;;;;;;;21.55;74.11;101184.19;5068698;28;20395;-47
2021/09/10 05:56:39;;;;;;;30.38;17.25;;;;;;;21.59;73.66;101186.72;5052098;28;20873;-48
2021/09/10 05:59:04;;;;;;;29.98;17.40;;;;;;;21.67;73.28;101189.16;5067777;28;20193;-48
2021/09/10 06:01:29;;;;;;;25.65;16.40;;;;;;;21.74;73.06;101191.63;5044105;28;20060;-49
2021/09/10 06:03:55;;;;;;;28.90;16.27;;;;;;;21.88;73.63;101185.06;5070996;28;20024;-48
2021/09/10 06:06:20;;;;;;;26.15;16.50;;;;;;;22.15;72.87;101193.13;5065650;28;20517;-48
2021/09/10 06:08:49;;;;;;;25.23;15.43;;;;;;;22.42;71.77;101194.09;5065572;28;20067;-48
2021/09/10 06:11:14;;;;;;;24.02;15.32;;;;;;;22.67;70.67;101196.88;5070727;28;20039;-48
2021/09/10 06:13:39;;;;;;;23.15;15.35;;;;;;;22.81;70.22;101199.13;5067403;28;20356;-48
2021/09/10 06:16:05;;;;;;;24.17;14.88;;;;;;;22.98;69.21;101199.47;5068248;28;20554;-48
2021/09/10 06:18:30;;;;;;;23.80;16.30;;;;;;;23.02;68.86;101199.28;5065765;28;20024;-51
2021/09/10 06:20:56;;;;;;;26.55;15.80;;;;;;;23.12;68.94;101202.50;5071182;28;20028;-51
2021/09/10 06:23:22;;;;;;;24.45;16.02;;;;;;;23.12;68.00;101205.16;5068153;28;20135;-50
2021/09/10 06:25:48;;;;;;;23.20;16.15;;;;;;;23.10;68.24;101204.38;5036838;28;20527;-46
2021/09/10 06:28:13;;;;;;;29.00;16.40;;;;;;;23.09;68.37;101207.94;5066359;28;20197;-47
2021/09/10 06:30:39;;;;;;;24.27;15.70;;;;;;;23.24;68.47;101203.88;5067645;28;20709;-48
2021/09/10 06:33:04;;;;;;;25.38;15.30;;;;;;;23.31;68.05;101210.75;5068454;28;20028;-51
2021/09/10 06:35:30;;;;;;;26.40;15.10;;;;;;;23.40;68.54;101207.78;5066109;28;20110;-47
2021/09/10 06:37:56;;;;;;;27.23;15.57;;;;;;;23.53;67.58;101214.47;5071603;28;20442;-47
2021/09/10 06:40:21;;;;;;;23.30;15.35;;;;;;;23.67;66.43;101214.81;5063806;28;20093;-48
2021/09/10 06:42:46;;;;;;;23.15;14.90;;;;;;;23.67;66.74;101217.50;5068417;28;20129;-46
2021/09/10 06:45:12;;;;;;;27.05;15.48;;;;;;;23.67;66.37;101221.94;5072328;28;20318;-48
2021/09/10 06:47:38;;;;;;;22.15;14.98;;;;;;;23.55;67.56;101220.59;5068245;28;20196;-48
2021/09/10 06:50:09;;;;;;;22.13;14.95;;;;;;;23.57;67.31;101216.09;5068804;28;20032;-47
2021/09/10 06:52:38;;;;;;;24.02;14.85;;;;;;;23.55;67.85;101222.38;5073480;28;21229;-48
2021/09/10 06:55:04;;;;;;;22.65;14.48;;;;;;;23.57;67.36;101228.53;5069065;28;20024;-48
2021/09/10 06:57:30;;;;;;;24.20;14.35;;;;;;;23.42;67.99;101233.41;5067720;28;20040;-47
2021/09/10 06:59:56;;;;;;;27.08;14.52;;;;;;;23.46;67.02;101231.53;5070945;28;20028;-47
2021/09/10 07:02:21;;;;;;;20.63;13.85;;;;;;;23.49;67.35;101235.88;5067521;28;20046;-46
2021/09/10 07:04:47;;;;;;;25.92;14.25;;;;;;;23.46;68.17;101228.88;5073330;28;20107;-51
2021/09/10 07:07:12;;;;;;;20.40;12.75;;;;;;;23.56;68.24;101224.13;5068979;28;20047;-47
2021/09/10 07:09:39;;;;;;;22.40;14.63;;;;;;;23.58;67.20;101230.25;5069868;28;20065;-51
2021/09/10 07:12:07;;;;;;;26.67;14.15;;;;;;;23.60;67.62;101236.41;5053311;28;20550;-47
2021/09/10 07:14:32;;;;;;;22.70;13.88;;;;;;;23.67;67.28;101237.91;5065148;28;20035;-48
2021/09/10 07:16:58;;;;;;;23.02;13.65;;;;;;;23.75;66.95;101241.19;5065335;28;20051;-47
2021/09/10 07:19:23;;;;;;;25.02;12.82;;;;;;;23.77;66.19;101242.03;5066652;28;20053;-48
2021/09/10 07:21:49;;;;;;;30.48;12.82;;;;;;;23.80;65.80;101237.44;5069784;28;20032;-49
2021/09/10 07:24:14;;;;;;;21.20;12.95;;;;;;;23.81;66.47;101238.31;5070085;28;20096;-49
2021/09/10 07:26:40;;;;;;;18.63;12.23;;;;;;;23.96;65.44;101247.56;5068134;28;20344;-49
2021/09/10 07:29:05;;;;;;;20.65;12.35;;;;;;;23.95;66.01;101254.69;5069369;28;20103;-46
2021/09/10 07:31:30;;;;;;;20.33;12.40;;;;;;;24.01;65.76;101251.78;5068756;28;20142;-48
2021/09/10 07:33:56;;;;;;;16.20;11.60;;;;;;;24.13;65.57;101251.34;5071053;28;20081;-49
2021/09/10 07:36:21;;;;;;;17.77;11.60;;;;;;;24.23;65.14;101254.56;5054688;28;20556;-49
2021/09/10 07:38:47;;;;;;;17.20;12.00;;;;;;;24.36;63.53;101254.97;5062575;28;20028;-50
2021/09/10 07:41:12;;;;;;;18.77;10.60;;;;;;;24.48;64.25;101257.19;5063672;28;20533;-47
2021/09/10 07:43:38;;;;;;;21.67;11.65;;;;;;;24.43;64.27;101261.81;5065563;28;20032;-51
2021/09/10 07:46:03;;;;;;;15.60;10.77;;;;;;;24.60;63.39;101264.69;5070076;28;20044;-49
2021/09/10 07:48:29;;;;;;;18.42;10.13;;;;;;;24.64;62.48;101272.50;5069028;28;20378;-49
2021/09/10 07:50:54;;;;;;;15.52;10.05;;;;;;;24.62;62.67;101273.53;5068479;28;20058;-49
2021/09/10 07:53:19;;;;;;;16.20;10.27;;;;;;;24.68;62.97;101273.28;5066095;28;20331;-46
2021/09/10 07:55:45;;;;;;;17.20;11.30;;;;;;;24.72;63.56;101276.69;5067849;28;20089;-47
2021/09/10 07:58:10;;;;;;;19.10;11.57;;;;;;;24.85;61.98;101278.81;5069454;28;20052;-46
2021/09/10 08:00:36;;;;;;;18.55;11.10;;;;;;;25.02;61.57;101284.41;5063064;28;20462;-52
2021/09/10 08:03:01;;;;;;;17.58;13.18;;;;;;;25.16;60.33;101283.84;5069452;28;20031;-47
2021/09/10 08:05:26;;;;;;;19.50;14.13;;;;;;;25.41;61.18;101281.03;5066796;28;20032;-51
2021/09/10 08:07:52;;;;;;;20.50;15.20;;;;;;;25.68;60.18;101277.22;5064528;28;20024;-47
2021/09/10 08:10:18;;;;;;;21.42;15.93;;;;;;;25.79;59.17;101287.47;5048403;28;20407;-47
2021/09/10 08:12:44;;;;;;;26.30;18.20;;;;;;;26.17;58.61;101280.41;5069139;28;20051;-48
2021/09/10 08:15:11;;;;;;;24.45;17.75;;;;;;;26.47;56.65;101291.59;5067717;28;20036;-48
2021/09/10 08:17:37;;;;;;;25.80;17.95;;;;;;;26.61;56.25;101284.66;5067723;28;20077;-47
2021/09/10 08:20:04;;;;;;;24.48;17.02;;;;;;;26.86;56.73;101291.50;5052793;28;20032;-50
2021/09/10 08:22:30;;;;;;;20.00;15.18;;;;;;;27.07;55.74;101282.50;5031965;28;20126;-46
2021/09/10 08:24:58;;;;;;;23.67;16.73;;;;;;;27.23;55.51;101291.50;5065086;28;20090;-46
2021/09/10 08:27:25;;;;;;;20.48;14.55;;;;;;;27.34;55.19;101283.81;5068826;28;20047;-51
2021/09/10 08:29:51;;;;;;;18.83;13.52;;;;;;;27.47;55.23;101284.06;5050907;28;20028;-48
2021/09/10 08:32:16;;;;;;;15.13;12.25;;;;;;;27.45;54.00;101285.94;5050381;28;20058;-46
2021/09/10 08:34:42;;;;;;;17.85;12.65;;;;;;;27.33;53.50;101284.75;5060536;28;20710;-49
2021/09/10 08:37:07;;;;;;;17.85;11.85;;;;;;;27.23;54.36;101288.84;5061109;28;20265;-46
2021/09/10 08:39:32;;;;;;;14.25;11.88;;;;;;;26.39;57.76;101286.59;5027302;28;20224;-46
2021/09/10 08:41:58;;;;;;;16.35;11.38;;;;;;;26.49;56.59;101289.69;5068847;28;20437;-48
2021/09/10 08:44:25;;;;;;;18.17;10.93;;;;;;;26.29;57.78;101287.91;5067452;28;20466;-47
2021/09/10 08:46:50;;;;;;;15.93;10.23;;;;;;;26.38;55.71;101290.19;5047392;28;20024;-46
2021/09/10 08:49:15;;;;;;;13.02;9.98;;;;;;;26.38;57.81;101298.22;5065068;28;20055;-47
2021/09/10 08:51:42;;;;;;;13.57;10.07;;;;;;;26.43;57.23;101298.88;5066606;28;20032;-48
2021/09/10 08:54:07;;;;;;;14.88;10.82;;;;;;;26.23;57.50;101298.84;5066987;28;20030;-47
2021/09/10 08:56:33;;;;;;;15.85;10.90;;;;;;;25.92;59.31;101304.72;5055699;28;20032;-49
2021/09/10 08:59:09;;;;;;;16.98;11.88;;;;;;;25.96;57.27;101310.78;5065787;28;20047;-47
2021/09/10 09:01:35;;;;;;;15.30;11.88;;;;;;;25.75;60.17;101307.22;5066317;28;20397;-47
2021/09/10 09:04:04;;;;;;;16.83;11.40;;;;;;;25.76;58.05;101315.16;5064696;28;20047;-47
2021/09/10 09:06:34;;;;;;;15.35;11.70;;;;;;;25.60;58.40;101313.22;5065867;28;20024;-49
2021/09/10 09:09:01;;;;;;;18.08;11.65;;;;;;;25.66;58.65;101315.63;5072811;28;20125;-48
2021/09/10 09:11:26;;;;;;;42.08;11.95;;;;;;;25.47;59.74;101323.50;5052801;28;20020;-47
2021/09/10 09:13:53;;;;;;;18.77;11.32;;;;;;;25.58;58.43;101317.75;5053674;28;20369;-48
2021/09/10 09:16:25;;;;;;;14.88;11.30;;;;;;;25.55;58.84;101321.41;5064751;28;20760;-48
2021/09/10 09:19:02;;;;;;;16.00;11.57;;;;;;;25.53;58.48;101323.25;5070623;28;20035;-46
2021/09/10 09:21:38;;;;;;;16.33;11.43;;;;;;;25.41;59.36;101331.75;5067168;28;20064;-48
2021/09/10 09:24:20;;;;;;;15.00;11.82;;;;;;;25.38;60.31;101334.53;5074807;28;20039;-48
2021/09/10 09:26:49;;;;;;;18.27;13.30;;;;;;;25.32;60.61;101334.78;5044864;28;20247;-48
2021/09/10 09:29:23;;;;;;;23.50;17.48;;;;;;;25.26;60.02;101335.91;5066850;28;20399;-48
2021/09/10 09:32:04;;;;;;;28.45;19.88;;;;;;;25.11;60.34;101333.88;5056799;28;20496;-46
2021/09/10 09:34:47;;;;;;;29.05;21.25;;;;;;;25.14;59.40;101330.19;5068332;28;20032;-50
2021/09/10 09:37:14;;;;;;;26.80;20.40;;;;;;;25.15;60.42;101338.13;5069344;28;20518;-46
2021/09/10 09:39:52;;;;;;;29.35;20.38;;;;;;;25.17;60.30;101338.09;5066701;28;20032;-47
2021/09/10 09:42:29;;;;;;;28.40;21.88;;;;;;;24.97;61.59;101333.53;5070929;28;20114;-48
2021/09/10 09:45:08;;;;;;;31.10;22.42;;;;;;;24.87;60.11;101341.00;5073145;28;20028;-48
2021/09/10 09:47:35;;;;;;;30.23;22.75;;;;;;;24.99;59.93;101348.56;5051358;28;20070;-46
2021/09/10 09:50:12;;;;;;;32.75;22.42;;;;;;;24.93;60.07;101351.47;5052388;28;20032;-46
2021/09/10 09:52:38;;;;;;;28.95;22.10;;;;;;;24.96;59.97;101355.78;5068968;28;20028;-48
2021/09/10 09:55:04;;;;;;;26.23;19.75;;;;;;;25.11;59.68;101346.31;5067132;28;20035;-49
2021/09/10 09:57:31;;;;;;;27.70;20.95;;;;;;;25.22;60.24;101346.78;5070749;28;20503;-49
2021/09/10 09:59:57;;;;;;;26.02;18.40;;;;;;;25.43;58.90;101351.25;5068962;28;20169;-48
2021/09/10 10:02:22;;;;;;;25.45;19.20;;;;;;;25.44;58.76;101352.97;5062044;28;20146;-46
2021/09/10 10:04:48;;;;;;;24.73;19.73;;;;;;;25.43;59.87;101346.75;5068626;28;20041;-52
2021/09/10 10:07:15;;;;;;;27.10;20.13;;;;;;;25.65;59.55;101341.47;5072891;28;20028;-48
2021/09/10 10:09:43;;;;;;;28.70;20.75;;;;;;;25.83;57.91;101335.34;5068408;28;20473;-46
2021/09/10 10:12:09;;;;;;;26.85;19.92;;;;;;;25.64;60.34;101344.19;5055991;28;20027;-47
2021/09/10 10:14:39;;;;;;;26.00;20.13;;;;;;;25.80;59.02;101342.59;5049094;28;20109;-49
2021/09/10 10:17:06;;;;;;;25.85;20.25;;;;;;;25.92;57.39;101352.81;5069072;28;20197;-49
2021/09/10 10:19:36;;;;;;;29.23;19.60;;;;;;;26.11;57.11;101353.72;5053908;28;20024;-48
2021/09/10 10:22:07;;;;;;;27.35;20.10;;;;;;;25.97;57.48;101352.59;5053493;28;20043;-46
2021/09/10 10:24:43;;;;;;;28.58;20.70;;;;;;;25.87;59.26;101346.75;5070245;28;20081;-50
2021/09/10 10:27:39;;;;;;;30.33;19.08;;;;;;;25.76;57.41;101352.56;5069081;28;20430;-49
2021/09/10 10:30:14;;;;;;;23.13;17.13;;;;;;;25.80;57.59;101356.81;5073627;28;20038;-45
2021/09/10 10:32:47;;;;;;;24.88;17.70;;;;;;;25.76;57.92;101357.03;5061111;28;20032;-47
2021/09/10 10:35:34;;;;;;;24.50;17.17;;;;;;;25.80;59.29;101356.81;5073595;28;20080;-48
2021/09/10 10:38:08;;;;;;;18.95;14.85;;;;;;;25.65;59.52;101365.50;5067835;28;20281;-47
2021/09/10 10:40:41;;;;;;;19.92;14.23;;;;;;;25.63;57.90;101362.00;5072025;28;20081;-47
2021/09/10 10:43:12;;;;;;;18.83;14.77;;;;;;;25.53;59.27;101363.28;5070969;28;20028;-45
2021/09/10 10:45:46;;;;;;;18.70;13.35;;;;;;;25.66;58.67;101361.91;5069767;28;21238;-47
2021/09/10 10:48:32;;;;;;;19.27;14.10;;;;;;;25.69;58.26;101360.88;5063810;28;20084;-49
2021/09/10 10:51:19;;;;;;;20.30;14.13;;;;;;;25.59;58.71;101352.41;5063137;28;20103;-50
2021/09/10 10:53:45;;;;;;;18.58;13.82;;;;;;;25.60;58.18;101354.13;5067586;28;20067;-47
2021/09/10 10:56:29;;;;;;;16.70;13.48;;;;;;;25.68;59.21;101348.47;5063924;28;20027;-49
2021/09/10 10:59:19;;;;;;;17.83;12.90;;;;;;;25.68;59.37;101362.69;5068652;28;20583;-51
2021/09/10 11:02:16;;;;;;;16.30;11.55;;;;;;;25.91;58.61;101351.06;5061070;28;20608;-47
2021/09/10 11:05:14;;;;;;;15.75;11.90;;;;;;;26.01;58.60;101354.19;5068735;28;20043;-46
2021/09/10 11:07:40;;;;;;;14.02;10.93;;;;;;;26.07;57.83;101353.94;5056559;28;20075;-50
2021/09/10 11:10:11;;;;;;;16.50;12.25;;;;;;;26.17;56.99;101352.56;5068799;28;20471;-47